Time;durP1;ratioP1;P1;durP2;ratioP2;P2;SDS_P1;SDS_P2;PMS_P1;PMS_P2;Temp;Humidity;BMP_temperature;BMP_pressure;BME280_temperature;BME280_humidity;BME280_pressure;Samples;Min_cycle;Max_cycle;Signal;HPM_P1;HPM_P2
2021/09/30 00:01:21;;;;;;;2.97;0.50;;;22.80;54.50;;;;;;5012993;28;20038;-59
2021/09/30 00:03:47;;;;;;;3.45;0.70;;;22.80;54.50;;;;;;5012557;28;20578;-60
2021/09/30 00:06:12;;;;;;;1.25;0.43;;;22.80;54.40;;;;;;5011991;28;20057;-59
2021/09/30 00:08:38;;;;;;;1.50;0.50;;;22.80;54.30;;;;;;5012547;28;20034;-60
2021/09/30 00:11:16;;;;;;;0.50;0.35;;;22.70;54.40;;;;;;5010420;28;20033;-59
2021/09/30 00:13:55;;;;;;;1.48;0.60;;;22.70;54.30;;;;;;5011959;28;20095;-61
2021/09/30 00:36:03;;;;;;;2.00;0.70;;;22.70;54.20;;;;;;5011209;28;20037;-60
2021/09/30 00:49:37;;;;;;;0.93;0.40;;;22.70;54.20;;;;;;5011846;28;20030;-60
2021/09/30 00:52:49;;;;;;;1.10;0.60;;;22.70;54.20;;;;;;5011334;28;20050;-59
2021/09/30 00:55:15;;;;;;;0.98;0.50;;;22.70;54.20;;;;;;5002819;28;20323;-59
2021/09/30 02:27:49;;;;;;;2.00;0.65;;;22.60;53.90;;;;;;5014465;28;20030;-59
2021/09/30 02:58:15;;;;;;;0.70;0.40;;;22.50;53.70;;;;;;4993578;28;20045;-59
2021/09/30 03:00:43;;;;;;;1.20;0.52;;;22.50;53.70;;;;;;4998200;28;20096;-59
2021/09/30 03:03:12;;;;;;;1.02;0.40;;;22.50;53.70;;;;;;5012970;28;20025;-59
2021/09/30 03:05:40;;;;;;;1.25;0.50;;;22.50;53.60;;;;;;5013493;28;20050;-59
2021/09/30 03:08:05;;;;;;;1.70;0.60;;;22.50;53.60;;;;;;5012959;28;20062;-59
2021/09/30 03:10:32;;;;;;;1.42;0.43;;;22.50;53.60;;;;;;5012971;28;20034;-59
2021/09/30 03:12:59;;;;;;;1.58;0.50;;;22.50;53.60;;;;;;5012727;28;20029;-59
2021/09/30 03:23:24;;;;;;;0.75;0.50;;;22.50;53.60;;;;;;5012706;28;20029;-59
2021/09/30 03:25:52;;;;;;;1.08;0.50;;;22.50;53.60;;;;;;5012657;28;20022;-61
2021/09/30 03:28:21;;;;;;;1.48;0.50;;;22.50;53.60;;;;;;5013166;28;20034;-59
2021/09/30 03:30:48;;;;;;;2.80;0.43;;;22.50;53.60;;;;;;5012109;28;20478;-61
2021/09/30 03:33:14;;;;;;;1.17;0.50;;;22.50;53.60;;;;;;5013173;28;20033;-59
2021/09/30 03:35:40;;;;;;;2.28;0.60;;;22.50;53.60;;;;;;5012900;28;20030;-59
2021/09/30 03:38:08;;;;;;;1.20;0.50;;;22.50;53.60;;;;;;5012801;28;20895;-59
2021/09/30 03:40:36;;;;;;;1.55;0.57;;;22.50;53.60;;;;;;5012806;28;20030;-60
2021/09/30 03:43:05;;;;;;;0.85;0.50;;;22.50;53.60;;;;;;5007838;28;20486;-60
2021/09/30 03:45:31;;;;;;;0.70;0.40;;;22.50;53.60;;;;;;5011606;28;20097;-60
2021/09/30 03:47:57;;;;;;;2.10;0.60;;;22.50;53.60;;;;;;5010797;28;20037;-60
2021/09/30 03:50:26;;;;;;;0.85;0.47;;;22.50;53.60;;;;;;5011298;28;20030;-60
2021/09/30 04:00:40;;;;;;;0.40;0.32;;;22.50;53.50;;;;;;5010603;28;20100;-59
2021/09/30 04:03:06;;;;;;;3.10;0.57;;;22.50;53.60;;;;;;5010513;28;20030;-60
2021/09/30 04:05:32;;;;;;;0.70;0.40;;;22.50;53.50;;;;;;5010986;28;20025;-59
2021/09/30 04:07:58;;;;;;;0.47;0.40;;;22.50;53.50;;;;;;5010643;28;20030;-60
2021/09/30 04:10:23;;;;;;;1.63;0.50;;;22.50;53.50;;;;;;5010937;28;20046;-60
2021/09/30 04:12:49;;;;;;;1.80;0.70;;;22.50;53.50;;;;;;5010740;28;20014;-60
2021/09/30 04:15:15;;;;;;;1.77;1.05;;;22.50;53.50;;;;;;5011030;28;20030;-60
2021/09/30 04:17:41;;;;;;;1.30;0.43;;;22.50;54.10;;;;;;5011053;28;20030;-59
2021/09/30 04:20:07;;;;;;;0.73;0.40;;;22.50;53.50;;;;;;5010188;28;20036;-59
2021/09/30 04:22:33;;;;;;;1.38;0.55;;;22.50;53.40;;;;;;5033636;28;20391;-60
2021/09/30 04:24:59;;;;;;;1.08;0.63;;;22.50;53.40;;;;;;5009558;28;20485;-60
2021/09/30 04:27:24;;;;;;;1.75;0.70;;;22.50;53.40;;;;;;5011068;28;20097;-60
2021/09/30 04:29:50;;;;;;;1.15;0.50;;;22.50;53.40;;;;;;5009727;28;20034;-60
2021/09/30 04:32:16;;;;;;;2.72;0.65;;;22.50;53.40;;;;;;5006664;28;20061;-60
2021/09/30 04:34:42;;;;;;;0.93;0.47;;;22.50;53.40;;;;;;5010667;28;20053;-59
2021/09/30 04:37:07;;;;;;;3.42;0.50;;;22.50;53.50;;;;;;5009721;28;20026;-59
2021/09/30 04:39:33;;;;;;;2.85;0.50;;;22.50;53.50;;;;;;5010635;28;20030;-60
2021/09/30 04:41:59;;;;;;;1.85;0.55;;;22.50;53.40;;;;;;5009327;28;20092;-60
2021/09/30 04:44:26;;;;;;;2.28;0.80;;;22.40;53.40;;;;;;5011790;28;20029;-59
2021/09/30 04:46:51;;;;;;;2.47;0.57;;;22.40;53.50;;;;;;5011254;28;20033;-60
2021/09/30 04:49:17;;;;;;;0.77;0.40;;;22.50;53.60;;;;;;5012099;28;20475;-59
2021/09/30 04:51:43;;;;;;;1.95;0.60;;;22.40;53.50;;;;;;5011146;28;20079;-60
2021/09/30 04:54:08;;;;;;;0.82;0.50;;;22.40;53.50;;;;;;5011264;28;20022;-60
2021/09/30 04:56:34;;;;;;;2.40;0.60;;;22.40;53.40;;;;;;5012203;28;20022;-59
2021/09/30 04:59:02;;;;;;;2.00;0.50;;;22.40;53.40;;;;;;5011181;28;20036;-60
2021/09/30 05:01:28;;;;;;;1.73;0.52;;;22.40;53.40;;;;;;5011604;28;20470;-59
2021/09/30 05:03:54;;;;;;;1.42;0.70;;;22.40;53.40;;;;;;5011025;28;20041;-59
2021/09/30 05:06:20;;;;;;;0.73;0.73;;;22.40;53.40;;;;;;5011530;28;20050;-60
2021/09/30 05:08:49;;;;;;;1.95;0.88;;;22.40;53.40;;;;;;5011671;28;20168;-59
2021/09/30 05:11:15;;;;;;;2.28;0.45;;;22.40;53.40;;;;;;5011160;28;20033;-59
2021/09/30 05:13:42;;;;;;;2.28;0.40;;;22.40;53.40;;;;;;5011537;28;20029;-60
2021/09/30 05:16:13;;;;;;;1.13;0.60;;;22.40;53.40;;;;;;5013277;28;20034;-59
2021/09/30 05:18:44;;;;;;;1.98;0.40;;;22.40;53.40;;;;;;5015083;28;20052;-59
2021/09/30 05:21:09;;;;;;;0.63;0.43;;;22.40;53.40;;;;;;5013607;28;20029;-60
2021/09/30 05:23:35;;;;;;;1.85;0.57;;;22.40;53.40;;;;;;5015319;28;20029;-60
2021/09/30 05:26:02;;;;;;;1.23;0.40;;;22.40;53.30;;;;;;5014613;28;20062;-59
2021/09/30 05:28:27;;;;;;;2.80;0.63;;;22.40;53.30;;;;;;5015828;28;20466;-59
2021/09/30 05:30:53;;;;;;;1.25;0.70;;;22.40;53.30;;;;;;5014519;28;20106;-60
2021/09/30 05:33:20;;;;;;;1.48;0.60;;;22.40;53.40;;;;;;5015670;28;20049;-59
2021/09/30 05:35:46;;;;;;;2.40;0.88;;;22.40;53.30;;;;;;5015183;28;20105;-60
2021/09/30 05:38:12;;;;;;;0.50;0.32;;;22.40;53.30;;;;;;5014915;28;20038;-59
2021/09/30 05:40:38;;;;;;;2.17;1.17;;;22.40;53.30;;;;;;5015029;28;20541;-59
2021/09/30 05:43:05;;;;;;;3.33;0.70;;;22.40;53.40;;;;;;5014252;28;20402;-59
2021/09/30 05:45:32;;;;;;;2.90;0.70;;;22.40;53.90;;;;;;5015197;28;20022;-60
2021/09/30 05:47:58;;;;;;;3.22;0.80;;;22.40;54.10;;;;;;5013870;28;20038;-60
2021/09/30 05:50:28;;;;;;;2.42;0.60;;;22.50;54.10;;;;;;5014506;28;20040;-59
2021/09/30 05:52:54;;;;;;;2.67;0.82;;;22.50;54.20;;;;;;5014001;28;20030;-62
2021/09/30 05:55:19;;;;;;;2.65;0.90;;;22.50;54.60;;;;;;5013525;28;20030;-58
2021/09/30 05:57:45;;;;;;;6.63;0.88;;;22.50;54.60;;;;;;5014772;28;20026;-58
2021/09/30 06:00:16;;;;;;;9.05;1.10;;;22.50;55.00;;;;;;5013879;28;20113;-60
2021/09/30 06:11:25;;;;;;;9.57;1.35;;;22.60;55.10;;;;;;4991302;28;20125;-58
2021/09/30 06:13:57;;;;;;;7.47;0.88;;;22.60;55.30;;;;;;4994922;28;20023;-61
2021/09/30 06:16:24;;;;;;;4.38;0.82;;;22.70;55.40;;;;;;5003213;28;20037;-60
2021/09/30 06:18:50;;;;;;;6.40;1.15;;;22.70;55.50;;;;;;5013447;28;20026;-60
2021/09/30 06:21:15;;;;;;;4.93;1.00;;;22.60;55.20;;;;;;5014082;28;20033;-60
2021/09/30 06:23:41;;;;;;;7.20;0.90;;;22.60;55.20;;;;;;5012982;28;20478;-60
2021/09/30 06:26:07;;;;;;;7.10;0.98;;;22.60;55.30;;;;;;5012585;28;20026;-60
2021/09/30 06:28:33;;;;;;;4.90;0.90;;;22.50;55.30;;;;;;5012337;28;20037;-60
2021/09/30 06:30:59;;;;;;;5.65;1.08;;;22.50;55.30;;;;;;5012722;28;20034;-60
2021/09/30 06:33:25;;;;;;;3.38;0.90;;;22.50;55.30;;;;;;5013752;28;20056;-59
2021/09/30 06:35:52;;;;;;;8.40;0.93;;;22.50;55.30;;;;;;5013563;28;20057;-60
2021/09/30 06:38:18;;;;;;;3.42;1.38;;;22.50;55.30;;;;;;5013913;28;20049;-60
2021/09/30 06:40:45;;;;;;;7.03;0.90;;;22.50;55.30;;;;;;5012168;28;20034;-61
2021/09/30 06:43:11;;;;;;;4.88;1.55;;;22.50;55.30;;;;;;5012891;28;20797;-61
2021/09/30 06:45:37;;;;;;;2.63;1.08;;;22.50;55.20;;;;;;5013303;28;20028;-61
2021/09/30 06:48:03;;;;;;;6.82;0.73;;;22.60;55.20;;;;;;5012965;28;20038;-60
2021/09/30 06:50:28;;;;;;;3.90;0.57;;;22.70;55.20;;;;;;5012912;28;20037;-60
2021/09/30 06:52:54;;;;;;;6.20;1.67;;;22.70;55.60;;;;;;5013099;28;20033;-61
2021/09/30 06:55:20;;;;;;;5.75;0.95;;;22.70;55.70;;;;;;5013392;28;20026;-60
2021/09/30 06:57:47;;;;;;;6.72;0.98;;;22.60;55.90;;;;;;5016995;28;20053;-60
2021/09/30 07:00:13;;;;;;;4.95;1.88;;;22.60;55.80;;;;;;5012197;28;20025;-60
2021/09/30 07:02:41;;;;;;;2.50;0.60;;;22.50;55.80;;;;;;5013491;28;20149;-60
2021/09/30 07:05:08;;;;;;;1.77;0.50;;;22.50;55.90;;;;;;5012441;28;20033;-60
2021/09/30 07:07:35;;;;;;;5.07;0.93;;;22.50;55.70;;;;;;5013157;28;20052;-59
2021/09/30 07:10:03;;;;;;;3.83;0.75;;;22.50;55.80;;;;;;5012233;28;20034;-60
2021/09/30 07:12:29;;;;;;;2.83;0.70;;;22.50;55.80;;;;;;5012931;28;20471;-60
2021/09/30 07:14:54;;;;;;;4.93;1.02;;;22.50;55.70;;;;;;5012630;28;20026;-61
2021/09/30 07:17:21;;;;;;;1.88;0.60;;;22.50;55.70;;;;;;5013050;28;20034;-60
2021/09/30 07:19:47;;;;;;;1.85;0.77;;;22.50;55.60;;;;;;5012694;28;20034;-60
2021/09/30 07:22:12;;;;;;;2.38;0.70;;;22.50;55.50;;;;;;5011907;28;20662;-60
2021/09/30 07:24:38;;;;;;;1.67;0.70;;;22.50;55.50;;;;;;5021098;28;20386;-60
2021/09/30 07:27:08;;;;;;;2.97;0.70;;;22.50;55.40;;;;;;5031913;28;20033;-60
2021/09/30 07:29:34;;;;;;;3.75;0.70;;;22.50;55.30;;;;;;5032582;28;20029;-60
2021/09/30 07:32:00;;;;;;;2.47;0.65;;;22.40;55.20;;;;;;5028127;28;20067;-61
2021/09/30 07:34:26;;;;;;;6.75;0.85;;;22.50;55.20;;;;;;5013162;28;20034;-60
2021/09/30 07:36:52;;;;;;;3.53;0.65;;;22.50;55.20;;;;;;5012210;28;20395;-61
2021/09/30 07:39:18;;;;;;;1.83;0.70;;;22.40;55.00;;;;;;5012026;28;20045;-60
2021/09/30 07:41:45;;;;;;;1.50;0.50;;;22.50;55.00;;;;;;5011592;28;20022;-60
2021/09/30 07:44:11;;;;;;;1.95;0.82;;;22.50;55.00;;;;;;5011594;28;20026;-60
2021/09/30 07:46:39;;;;;;;2.08;0.70;;;22.50;54.90;;;;;;5011834;28;20541;-60
2021/09/30 07:49:06;;;;;;;1.90;1.08;;;22.50;54.80;;;;;;5011908;28;20026;-60
2021/09/30 07:51:35;;;;;;;2.10;0.70;;;22.40;54.80;;;;;;5012424;28;20463;-60
2021/09/30 07:54:02;;;;;;;1.38;0.60;;;22.50;54.80;;;;;;5011570;28;20034;-60
2021/09/30 07:56:28;;;;;;;1.23;0.50;;;22.40;55.30;;;;;;5011977;28;20030;-60
2021/09/30 07:58:55;;;;;;;2.25;0.50;;;22.50;54.70;;;;;;5012126;28;20034;-62
2021/09/30 08:01:22;;;;;;;1.85;0.75;;;22.50;54.60;;;;;;5010957;28;20038;-60
2021/09/30 08:03:51;;;;;;;1.90;0.70;;;22.50;54.60;;;;;;5012509;28;20108;-60
2021/09/30 08:06:17;;;;;;;1.17;0.52;;;22.50;54.60;;;;;;5011151;28;20068;-60
2021/09/30 08:08:43;;;;;;;1.88;0.50;;;22.50;54.50;;;;;;5012426;28;20034;-60
2021/09/30 08:11:09;;;;;;;0.95;0.22;;;22.50;54.50;;;;;;5011538;28;20026;-60
2021/09/30 08:13:35;;;;;;;1.67;0.50;;;22.40;54.40;;;;;;5012448;28;20030;-60
2021/09/30 08:16:01;;;;;;;2.75;0.93;;;22.50;54.40;;;;;;5009588;28;20112;-60
2021/09/30 08:18:27;;;;;;;1.90;0.60;;;22.40;54.30;;;;;;5012321;28;20451;-60
2021/09/30 08:20:54;;;;;;;1.45;0.40;;;22.40;54.20;;;;;;5011592;28;20026;-61
2021/09/30 08:23:20;;;;;;;1.17;0.52;;;22.40;54.10;;;;;;5005974;28;20041;-60
2021/09/30 08:25:46;;;;;;;1.45;0.60;;;22.40;54.10;;;;;;5012516;28;20061;-60
2021/09/30 08:28:13;;;;;;;1.92;0.52;;;22.40;54.00;;;;;;5011817;28;20038;-60
2021/09/30 08:30:40;;;;;;;1.73;0.85;;;22.50;54.00;;;;;;5011485;28;20429;-60
2021/09/30 08:33:10;;;;;;;2.15;0.63;;;22.50;54.00;;;;;;5011216;28;20071;-61
2021/09/30 08:35:37;;;;;;;0.70;0.40;;;22.50;53.90;;;;;;5011268;28;20033;-60
2021/09/30 08:38:03;;;;;;;1.25;0.60;;;22.40;53.80;;;;;;5011239;28;20112;-61
2021/09/30 08:40:29;;;;;;;2.05;0.55;;;22.50;53.90;;;;;;5011745;28;20474;-61
2021/09/30 08:42:55;;;;;;;1.48;0.70;;;22.40;53.80;;;;;;5011600;28;20033;-61
2021/09/30 08:45:23;;;;;;;1.38;0.52;;;22.40;53.80;;;;;;5011456;28;20028;-60
2021/09/30 08:48:03;;;;;;;2.88;0.80;;;22.40;53.70;;;;;;5011811;28;20133;-60
2021/09/30 08:50:32;;;;;;;1.80;0.60;;;22.40;53.70;;;;;;4993723;28;20399;-60
2021/09/30 08:53:01;;;;;;;3.15;0.75;;;22.40;53.70;;;;;;4995490;28;20375;-61
2021/09/30 08:55:26;;;;;;;2.20;0.80;;;22.40;54.20;;;;;;5009539;28;20064;-60
2021/09/30 08:57:52;;;;;;;2.55;0.60;;;22.40;53.60;;;;;;5015868;28;20029;-60
2021/09/30 09:00:20;;;;;;;1.20;0.50;;;22.40;53.50;;;;;;5014370;28;20029;-60
2021/09/30 09:02:49;;;;;;;2.17;0.50;;;22.40;53.40;;;;;;5015278;28;20026;-60
2021/09/30 09:05:15;;;;;;;2.15;0.50;;;22.40;53.40;;;;;;5014862;28;20613;-60
2021/09/30 09:07:51;;;;;;;1.80;0.60;;;22.40;53.30;;;;;;5015605;28;20131;-60
2021/09/30 09:10:20;;;;;;;1.67;0.40;;;22.40;53.30;;;;;;5014839;28;20648;-60
2021/09/30 09:12:45;;;;;;;1.02;0.40;;;22.40;53.20;;;;;;5015915;28;20116;-60
2021/09/30 09:15:11;;;;;;;1.85;0.50;;;22.40;53.30;;;;;;5014373;28;20113;-60
2021/09/30 09:17:40;;;;;;;1.55;0.50;;;22.40;53.20;;;;;;5015340;28;20097;-60
2021/09/30 09:20:06;;;;;;;1.08;0.40;;;22.40;53.20;;;;;;5013415;28;20030;-60
2021/09/30 09:22:35;;;;;;;1.75;0.52;;;22.40;53.80;;;;;;5015504;28;20038;-60
2021/09/30 09:25:16;;;;;;;0.98;0.40;;;22.40;53.10;;;;;;5014316;28;20410;-61
2021/09/30 09:27:49;;;;;;;1.27;0.63;;;22.40;53.10;;;;;;5015312;28;20060;-60
2021/09/30 09:30:27;;;;;;;1.67;0.43;;;22.40;53.00;;;;;;5014633;28;20046;-60
2021/09/30 09:33:05;;;;;;;1.60;0.47;;;22.40;52.90;;;;;;5015180;28;20036;-60
2021/09/30 09:35:58;;;;;;;1.20;0.50;;;22.40;52.90;;;;;;5015016;28;20108;-60
2021/09/30 09:38:27;;;;;;;1.83;0.60;;;22.40;52.70;;;;;;5010478;28;20164;-60
2021/09/30 09:40:57;;;;;;;1.55;0.70;;;22.40;52.80;;;;;;5014754;28;20040;-60
2021/09/30 09:43:31;;;;;;;1.40;0.50;;;22.40;52.70;;;;;;5014449;28;20104;-60
2021/09/30 09:45:57;;;;;;;3.05;0.50;;;22.40;52.70;;;;;;5014511;28;20048;-60
2021/09/30 09:48:23;;;;;;;1.65;0.98;;;22.40;52.70;;;;;;5013473;28;20482;-60
2021/09/30 09:50:53;;;;;;;1.77;0.57;;;22.40;52.70;;;;;;5014828;28;20034;-60
2021/09/30 09:53:24;;;;;;;0.65;0.30;;;22.40;52.60;;;;;;5013986;28;20018;-60
2021/09/30 09:55:49;;;;;;;1.33;0.30;;;22.40;52.60;;;;;;5013151;28;20033;-60
2021/09/30 09:58:17;;;;;;;1.33;0.55;;;22.40;52.50;;;;;;5013904;28;20467;-60
2021/09/30 10:00:52;;;;;;;1.63;0.60;;;22.40;52.50;;;;;;5013674;28;20048;-60
2021/09/30 10:03:26;;;;;;;2.22;0.47;;;22.40;52.40;;;;;;5013321;28;20021;-60
2021/09/30 10:05:54;;;;;;;1.05;0.40;;;22.40;52.40;;;;;;5013914;28;20057;-60
2021/09/30 10:08:20;;;;;;;1.15;0.40;;;22.40;52.40;;;;;;5013581;28;20884;-60
2021/09/30 10:10:48;;;;;;;0.40;0.30;;;22.40;52.40;;;;;;5014057;28;20113;-60
2021/09/30 10:13:15;;;;;;;0.75;0.50;;;22.40;52.30;;;;;;5013329;28;20355;-61
2021/09/30 10:15:41;;;;;;;0.88;0.40;;;22.40;52.40;;;;;;5013107;28;20025;-61
2021/09/30 10:18:09;;;;;;;1.88;0.50;;;22.50;52.70;;;;;;5013299;28;20030;-60
2021/09/30 10:20:36;;;;;;;1.90;0.70;;;22.50;52.70;;;;;;5014806;28;20025;-59
2021/09/30 10:23:05;;;;;;;2.40;0.90;;;22.50;52.60;;;;;;5013602;28;20041;-60
2021/09/30 10:25:35;;;;;;;1.08;0.50;;;22.50;52.50;;;;;;5013368;28;20113;-59
2021/09/30 10:28:03;;;;;;;1.88;0.50;;;22.50;52.70;;;;;;5013523;28;20029;-61
2021/09/30 10:30:37;;;;;;;1.58;0.50;;;22.50;52.60;;;;;;5013957;28;20034;-61
2021/09/30 10:33:11;;;;;;;1.02;0.40;;;22.60;52.80;;;;;;5013336;28;20026;-60
2021/09/30 10:35:42;;;;;;;0.77;0.45;;;22.60;52.70;;;;;;5013649;28;20030;-59
2021/09/30 10:38:28;;;;;;;2.75;0.60;;;22.70;52.90;;;;;;5012598;28;20034;-59
2021/09/30 10:41:15;;;;;;;1.73;0.43;;;22.70;53.00;;;;;;5013593;28;20040;-59
2021/09/30 10:43:45;;;;;;;1.50;0.60;;;22.70;53.00;;;;;;5013612;28;20037;-59
2021/09/30 10:46:22;;;;;;;0.60;0.40;;;22.70;53.10;;;;;;5012511;28;20390;-59
2021/09/30 10:48:53;;;;;;;1.38;0.50;;;22.70;53.10;;;;;;5013326;28;20471;-58
2021/09/30 10:51:19;;;;;;;2.17;0.60;;;22.70;53.20;;;;;;5012827;28;20033;-61
2021/09/30 10:53:45;;;;;;;1.65;0.55;;;22.70;53.60;;;;;;5013147;28;20030;-61
2021/09/30 10:56:41;;;;;;;3.15;0.40;;;22.70;53.80;;;;;;5012563;28;20044;-60
2021/09/30 10:59:09;;;;;;;1.10;0.50;;;22.70;53.80;;;;;;5012642;28;20037;-60
2021/09/30 11:01:47;;;;;;;3.28;0.90;;;22.70;54.00;;;;;;5012981;28;20486;-60
2021/09/30 11:04:17;;;;;;;3.00;0.47;;;22.60;53.70;;;;;;5012151;28;20258;-60
2021/09/30 11:07:05;;;;;;;2.35;0.40;;;22.60;53.80;;;;;;5013131;28;20399;-60
2021/09/30 11:09:31;;;;;;;1.02;0.50;;;22.60;53.80;;;;;;5012640;28;20057;-60
2021/09/30 11:12:12;;;;;;;1.58;0.43;;;22.50;54.40;;;;;;5013358;28;20084;-60
2021/09/30 11:14:57;;;;;;;1.30;0.52;;;22.50;53.70;;;;;;5012094;28;20029;-60
2021/09/30 11:17:37;;;;;;;0.98;0.40;;;22.50;53.70;;;;;;5011315;28;20033;-60
2021/09/30 11:20:31;;;;;;;0.80;0.30;;;22.50;53.60;;;;;;5012198;28;20053;-60
2021/09/30 11:22:58;;;;;;;2.33;0.55;;;22.50;53.50;;;;;;5013004;28;20305;-60
2021/09/30 11:26:02;;;;;;;1.15;0.45;;;22.50;53.40;;;;;;5011646;28;20030;-60
2021/09/30 11:28:28;;;;;;;2.28;0.60;;;22.50;53.30;;;;;;4992948;28;20038;-60
2021/09/30 11:31:24;;;;;;;3.25;0.68;;;22.50;53.30;;;;;;4993072;28;20364;-60
2021/09/30 11:33:52;;;;;;;0.85;0.40;;;22.50;53.10;;;;;;5010668;28;20105;-61
2021/09/30 11:36:18;;;;;;;1.58;0.40;;;22.50;53.10;;;;;;5011405;28;20030;-61
2021/09/30 11:38:45;;;;;;;0.80;0.47;;;22.50;53.00;;;;;;5012930;28;20037;-60
2021/09/30 11:41:10;;;;;;;1.08;0.38;;;22.50;53.00;;;;;;5011273;28;20424;-60
2021/09/30 11:43:36;;;;;;;0.88;0.60;;;22.50;52.90;;;;;;5012509;28;20054;-60
2021/09/30 11:46:25;;;;;;;1.38;0.45;;;22.50;52.80;;;;;;5011540;28;20113;-61
2021/09/30 11:48:56;;;;;;;0.60;0.40;;;22.50;52.70;;;;;;5000566;28;20160;-61
2021/09/30 11:51:52;;;;;;;1.70;0.30;;;22.50;52.70;;;;;;5011806;28;20041;-61
2021/09/30 11:54:20;;;;;;;1.20;0.50;;;22.50;52.60;;;;;;5010067;28;20407;-60
2021/09/30 11:56:47;;;;;;;1.27;0.50;;;22.50;52.60;;;;;;5012018;28;20025;-61
2021/09/30 11:59:16;;;;;;;1.80;0.40;;;22.50;52.50;;;;;;5011458;28;20085;-61
2021/09/30 12:01:47;;;;;;;1.30;0.30;;;22.50;52.40;;;;;;5012297;28;20026;-60
2021/09/30 12:04:27;;;;;;;0.60;0.40;;;22.50;52.50;;;;;;5011746;28;20026;-60
2021/09/30 12:06:53;;;;;;;0.77;0.40;;;22.50;52.40;;;;;;5012183;28;20491;-60
2021/09/30 12:09:20;;;;;;;1.40;0.50;;;22.50;52.40;;;;;;5011229;28;20172;-61
2021/09/30 12:11:59;;;;;;;0.45;0.28;;;22.50;52.20;;;;;;5011729;28;20042;-60
2021/09/30 12:14:38;;;;;;;0.98;0.50;;;22.50;52.10;;;;;;5011035;28;20080;-60
2021/09/30 12:17:20;;;;;;;1.13;0.50;;;22.50;52.00;;;;;;5010766;28;20058;-60
2021/09/30 12:19:49;;;;;;;1.55;0.32;;;22.50;51.90;;;;;;5011928;28;20022;-61
2021/09/30 12:22:36;;;;;;;0.60;0.40;;;22.50;51.90;;;;;;5011172;28;20034;-60
2021/09/30 12:25:15;;;;;;;0.68;0.40;;;22.50;51.90;;;;;;5010725;28;20118;-60
2021/09/30 12:27:45;;;;;;;0.20;0.20;;;22.50;51.90;;;;;;5009659;28;20340;-61
2021/09/30 12:30:17;;;;;;;0.73;0.45;;;22.50;51.90;;;;;;5009595;28;20033;-61
2021/09/30 12:32:45;;;;;;;1.17;0.40;;;22.50;51.80;;;;;;5011663;28;20478;-61
2021/09/30 12:35:32;;;;;;;0.93;0.40;;;22.50;51.90;;;;;;5010871;28;20040;-61
2021/09/30 12:38:04;;;;;;;0.73;0.32;;;22.50;51.90;;;;;;5011890;28;20030;-60
2021/09/30 12:40:39;;;;;;;0.82;0.50;;;22.50;51.80;;;;;;5011629;28;20117;-61
2021/09/30 12:43:07;;;;;;;0.40;0.30;;;22.50;51.80;;;;;;5010775;28;20026;-61
2021/09/30 12:45:40;;;;;;;1.13;0.35;;;22.50;51.80;;;;;;5010765;28;20029;-61
2021/09/30 12:48:12;;;;;;;2.15;0.40;;;22.50;51.70;;;;;;5011246;28;20022;-61
2021/09/30 12:51:04;;;;;;;0.65;0.30;;;22.50;51.70;;;;;;5011448;28;20034;-60
2021/09/30 12:53:31;;;;;;;1.02;0.25;;;22.50;51.80;;;;;;5011847;28;20026;-60
2021/09/30 12:56:06;;;;;;;0.80;0.40;;;22.60;51.90;;;;;;5011627;28;20127;-61
2021/09/30 12:58:47;;;;;;;2.03;0.40;;;22.60;51.90;;;;;;5011622;28;20033;-61
2021/09/30 13:01:35;;;;;;;0.30;0.30;;;22.60;52.00;;;;;;5010863;28;20037;-61
2021/09/30 13:04:10;;;;;;;0.32;0.20;;;22.60;52.00;;;;;;5011498;28;20056;-61
2021/09/30 13:06:54;;;;;;;0.43;0.30;;;22.60;52.10;;;;;;5010730;28;20100;-61
2021/09/30 13:09:40;;;;;;;1.70;0.60;;;22.60;52.10;;;;;;5010364;28;20030;-61
2021/09/30 13:12:20;;;;;;;1.13;0.40;;;22.60;52.00;;;;;;5011074;28;20096;-61
2021/09/30 13:14:50;;;;;;;0.47;0.40;;;22.60;52.10;;;;;;5011806;28;20069;-61
2021/09/30 13:17:43;;;;;;;1.10;0.40;;;22.60;52.00;;;;;;5010670;28;20494;-61
2021/09/30 13:20:14;;;;;;;0.82;0.40;;;22.60;51.70;;;;;;5006906;28;20113;-61
2021/09/30 13:22:41;;;;;;;0.20;0.20;;;22.60;51.70;;;;;;5011931;28;20113;-61
2021/09/30 13:25:09;;;;;;;1.77;0.50;;;22.60;51.70;;;;;;5010925;28;20030;-60
2021/09/30 13:27:37;;;;;;;0.45;0.30;;;22.60;51.80;;;;;;5011638;28;20026;-61
2021/09/30 13:30:11;;;;;;;0.75;0.40;;;22.70;51.70;;;;;;5011156;28;20034;-61
2021/09/30 13:32:38;;;;;;;0.35;0.30;;;22.70;51.60;;;;;;5011452;28;20478;-61
2021/09/30 13:35:06;;;;;;;1.15;0.32;;;22.70;51.70;;;;;;5011348;28;20080;-61
2021/09/30 13:37:32;;;;;;;0.65;0.38;;;22.70;51.60;;;;;;5014400;28;20034;-61
2021/09/30 13:40:00;;;;;;;0.47;0.30;;;22.70;51.50;;;;;;5015167;28;20034;-61
2021/09/30 13:42:31;;;;;;;1.05;0.40;;;22.70;51.60;;;;;;5014166;28;20026;-61
2021/09/30 13:44:57;;;;;;;1.30;0.40;;;22.70;51.40;;;;;;5015183;28;20026;-60
2021/09/30 13:47:25;;;;;;;1.17;0.30;;;22.70;51.40;;;;;;4995015;28;20034;-61
2021/09/30 13:49:51;;;;;;;1.35;0.30;;;22.70;51.60;;;;;;4994320;28;20034;-60
2021/09/30 13:52:17;;;;;;;1.20;0.40;;;22.70;51.50;;;;;;4994731;28;20027;-61
2021/09/30 13:54:43;;;;;;;1.15;0.40;;;22.70;51.40;;;;;;4995399;28;20041;-61
2021/09/30 13:57:10;;;;;;;1.75;0.60;;;22.70;51.50;;;;;;4994899;28;20041;-60
2021/09/30 13:59:39;;;;;;;0.40;0.30;;;22.80;51.50;;;;;;4995248;28;20030;-61
2021/09/30 14:02:06;;;;;;;1.00;0.40;;;22.80;51.30;;;;;;4994777;28;20026;-61
2021/09/30 14:04:32;;;;;;;0.50;0.50;;;22.80;51.30;;;;;;4992933;28;20162;-60
2021/09/30 14:06:58;;;;;;;1.25;0.47;;;22.80;51.10;;;;;;4994984;28;20051;-60
2021/09/30 14:09:25;;;;;;;1.83;0.40;;;22.80;51.20;;;;;;4994281;28;20034;-61
2021/09/30 14:11:52;;;;;;;0.52;0.28;;;22.80;51.20;;;;;;4994851;28;20038;-60
2021/09/30 14:14:17;;;;;;;1.98;0.50;;;22.80;51.20;;;;;;4994012;28;20041;-61
2021/09/30 14:16:44;;;;;;;1.63;0.40;;;22.80;51.30;;;;;;5008855;28;20101;-61
2021/09/30 14:19:10;;;;;;;1.13;0.32;;;22.80;51.40;;;;;;5013892;28;20061;-61
2021/09/30 14:21:36;;;;;;;0.35;0.30;;;22.80;51.30;;;;;;5014205;28;20506;-61
2021/09/30 14:24:02;;;;;;;0.75;0.30;;;22.80;51.30;;;;;;5014570;28;20117;-61
2021/09/30 14:26:27;;;;;;;1.73;0.47;;;22.80;51.30;;;;;;5013433;28;20026;-61
2021/09/30 14:28:53;;;;;;;1.55;0.65;;;22.80;51.30;;;;;;5014369;28;20080;-61
2021/09/30 14:31:20;;;;;;;2.83;0.68;;;22.80;51.30;;;;;;5013405;28;20509;-61
2021/09/30 14:33:46;;;;;;;0.60;0.40;;;22.80;51.30;;;;;;5013032;28;20521;-61
2021/09/30 14:36:12;;;;;;;1.08;0.40;;;22.80;51.30;;;;;;5013125;28;20034;-61
2021/09/30 14:38:38;;;;;;;1.00;0.55;;;22.80;51.30;;;;;;5014295;28;20025;-61
2021/09/30 14:41:04;;;;;;;0.95;0.28;;;22.90;51.30;;;;;;5014076;28;20033;-61
2021/09/30 14:43:35;;;;;;;1.27;0.43;;;22.80;51.30;;;;;;5013243;28;20052;-61
2021/09/30 14:46:02;;;;;;;0.63;0.43;;;22.90;51.40;;;;;;5013832;28;20112;-61
2021/09/30 14:48:27;;;;;;;1.65;0.82;;;22.80;51.30;;;;;;5012162;28;20119;-61
2021/09/30 14:50:53;;;;;;;0.40;0.30;;;22.90;51.30;;;;;;5013632;28;20413;-61
2021/09/30 14:53:19;;;;;;;0.32;0.30;;;22.90;51.40;;;;;;5012863;28;20514;-61
2021/09/30 14:55:45;;;;;;;0.65;0.30;;;22.80;51.30;;;;;;5013868;28;20068;-61
2021/09/30 14:58:10;;;;;;;0.95;0.38;;;22.90;51.30;;;;;;5013070;28;20026;-62
2021/09/30 15:00:36;;;;;;;0.30;0.30;;;22.90;51.20;;;;;;5013487;28;20049;-62
2021/09/30 15:03:05;;;;;;;1.33;0.50;;;22.90;51.30;;;;;;5013650;28;20026;-61
2021/09/30 15:05:34;;;;;;;0.40;0.30;;;22.90;51.20;;;;;;5013038;28;20029;-61
2021/09/30 15:08:00;;;;;;;1.48;0.30;;;22.90;51.20;;;;;;5013930;28;20030;-62
2021/09/30 15:10:28;;;;;;;0.80;0.30;;;22.90;51.30;;;;;;5012832;28;20669;-61
2021/09/30 15:12:54;;;;;;;1.25;0.40;;;22.90;51.30;;;;;;5013434;28;20061;-62
2021/09/30 15:15:20;;;;;;;0.30;0.20;;;22.90;51.40;;;;;;5012144;28;20446;-62
2021/09/30 15:17:53;;;;;;;1.33;0.40;;;22.90;51.30;;;;;;5013440;28;20454;-62
2021/09/30 15:23:07;;;;;;;1.23;0.45;;;22.90;51.30;;;;;;5013355;28;20513;-62
2021/09/30 15:25:36;;;;;;;0.63;0.30;;;22.90;51.30;;;;;;5012713;28;20471;-61
2021/09/30 15:28:04;;;;;;;0.40;0.20;;;22.90;51.30;;;;;;5013297;28;20029;-62
2021/09/30 15:30:29;;;;;;;2.25;0.43;;;22.90;51.30;;;;;;5012456;28;20072;-62
2021/09/30 15:32:55;;;;;;;1.55;0.47;;;22.90;51.30;;;;;;5012997;28;20394;-62
2021/09/30 15:35:21;;;;;;;0.57;0.30;;;22.90;51.20;;;;;;5012192;28;20110;-62
2021/09/30 15:37:47;;;;;;;3.55;0.20;;;22.90;51.20;;;;;;5012752;28;20041;-62
2021/09/30 15:40:13;;;;;;;2.08;0.40;;;22.90;51.20;;;;;;5012199;28;20471;-62
2021/09/30 15:42:39;;;;;;;1.42;0.30;;;22.90;51.10;;;;;;5012887;28;20030;-62
2021/09/30 15:45:06;;;;;;;1.77;0.35;;;22.90;51.00;;;;;;5012297;28;20030;-62
2021/09/30 15:47:31;;;;;;;1.45;0.45;;;22.90;51.00;;;;;;5011847;28;20040;-62
2021/09/30 15:49:57;;;;;;;0.70;0.38;;;22.90;50.90;;;;;;5012559;28;20532;-62
2021/09/30 15:52:23;;;;;;;0.93;0.30;;;22.90;51.00;;;;;;5012087;28;20109;-62
2021/09/30 15:54:48;;;;;;;0.95;0.30;;;22.90;51.00;;;;;;5012772;28;20026;-62